sensor_id;sensor_type;location;lat;lon;timestamp;P1;durP1;ratioP1;P2;durP2;ratioP2
7231;SDS011;3657;49.630;11.018;2023-02-28T00:00:09;11.00;;;10.57;;
7231;SDS011;3657;49.630;11.018;2023-02-28T00:02:36;10.40;;;10.00;;
7231;SDS011;3657;49.630;11.018;2023-02-28T00:05:04;11.47;;;10.97;;
7231;SDS011;3657;49.630;11.018;2023-02-28T00:07:32;9.93;;;9.53;;
7231;SDS011;3657;49.630;11.018;2023-02-28T00:09:59;9.67;;;9.27;;
7231;SDS011;3657;49.630;11.018;2023-02-28T00:12:25;10.53;;;10.03;;
7231;SDS011;3657;49.630;11.018;2023-02-28T00:14:54;11.20;;;10.63;;
7231;SDS011;3657;49.630;11.018;2023-02-28T00:17:21;10.93;;;10.27;;
7231;SDS011;3657;49.630;11.018;2023-02-28T00:19:47;10.40;;;9.90;;
7231;SDS011;3657;49.630;11.018;2023-02-28T00:22:14;10.17;;;9.57;;
7231;SDS011;3657;49.630;11.018;2023-02-28T00:24:41;11.03;;;10.47;;
7231;SDS011;3657;49.630;11.018;2023-02-28T00:27:08;10.30;;;9.83;;
7231;SDS011;3657;49.630;11.018;2023-02-28T00:29:35;9.70;;;9.27;;
7231;SDS011;3657;49.630;11.018;2023-02-28T00:32:03;10.13;;;9.63;;
7231;SDS011;3657;49.630;11.018;2023-02-28T00:34:31;9.60;;;9.20;;
7231;SDS011;3657;49.630;11.018;2023-02-28T00:37:02;10.43;;;10.03;;
7231;SDS011;3657;49.630;11.018;2023-02-28T00:39:29;10.53;;;10.10;;
7231;SDS011;3657;49.630;11.018;2023-02-28T00:41:56;9.43;;;9.10;;
7231;SDS011;3657;49.630;11.018;2023-02-28T00:44:23;10.57;;;9.97;;
7231;SDS011;3657;49.630;11.018;2023-02-28T00:46:49;9.57;;;9.17;;
7231;SDS011;3657;49.630;11.018;2023-02-28T00:49:18;10.03;;;9.63;;
7231;SDS011;3657;49.630;11.018;2023-02-28T00:51:44;9.97;;;9.47;;
7231;SDS011;3657;49.630;11.018;2023-02-28T00:54:11;9.50;;;9.00;;
7231;SDS011;3657;49.630;11.018;2023-02-28T00:56:38;10.13;;;9.73;;
7231;SDS011;3657;49.630;11.018;2023-02-28T00:59:04;10.00;;;9.60;;
7231;SDS011;3657;49.630;11.018;2023-02-28T01:01:31;10.87;;;10.37;;
7231;SDS011;3657;49.630;11.018;2023-02-28T01:03:58;10.97;;;10.30;;
7231;SDS011;3657;49.630;11.018;2023-02-28T01:06:26;9.63;;;9.23;;
7231;SDS011;3657;49.630;11.018;2023-02-28T01:08:53;11.27;;;10.70;;
7231;SDS011;3657;49.630;11.018;2023-02-28T01:11:19;9.77;;;9.27;;
7231;SDS011;3657;49.630;11.018;2023-02-28T01:13:46;10.23;;;9.77;;
7231;SDS011;3657;49.630;11.018;2023-02-28T01:16:13;9.87;;;9.37;;
7231;SDS011;3657;49.630;11.018;2023-02-28T01:18:40;9.77;;;9.27;;
7231;SDS011;3657;49.630;11.018;2023-02-28T01:21:07;9.70;;;9.23;;
7231;SDS011;3657;49.630;11.018;2023-02-28T01:23:37;10.07;;;9.67;;
7231;SDS011;3657;49.630;11.018;2023-02-28T01:26:04;10.40;;;9.90;;
7231;SDS011;3657;49.630;11.018;2023-02-28T01:28:31;10.37;;;9.87;;
7231;SDS011;3657;49.630;11.018;2023-02-28T01:30:58;10.10;;;9.70;;
7231;SDS011;3657;49.630;11.018;2023-02-28T01:33:25;9.67;;;9.17;;
7231;SDS011;3657;49.630;11.018;2023-02-28T01:35:57;8.57;;;8.27;;
7231;SDS011;3657;49.630;11.018;2023-02-28T01:38:24;8.97;;;8.67;;
7231;SDS011;3657;49.630;11.018;2023-02-28T01:40:52;9.53;;;9.13;;
7231;SDS011;3657;49.630;11.018;2023-02-28T01:43:21;9.10;;;8.70;;
7231;SDS011;3657;49.630;11.018;2023-02-28T01:45:50;8.97;;;8.67;;
7231;SDS011;3657;49.630;11.018;2023-02-28T01:48:17;9.73;;;9.23;;
7231;SDS011;3657;49.630;11.018;2023-02-28T01:50:45;9.23;;;8.93;;
7231;SDS011;3657;49.630;11.018;2023-02-28T01:53:14;9.43;;;8.97;;
7231;SDS011;3657;49.630;11.018;2023-02-28T01:55:46;10.43;;;9.93;;
7231;SDS011;3657;49.630;11.018;2023-02-28T01:58:18;9.87;;;9.47;;
7231;SDS011;3657;49.630;11.018;2023-02-28T02:00:45;9.47;;;9.00;;
7231;SDS011;3657;49.630;11.018;2023-02-28T02:03:13;10.20;;;9.77;;
7231;SDS011;3657;49.630;11.018;2023-02-28T02:05:44;9.37;;;8.97;;
7231;SDS011;3657;49.630;11.018;2023-02-28T02:08:12;9.40;;;9.00;;
7231;SDS011;3657;49.630;11.018;2023-02-28T02:10:43;8.80;;;8.50;;
7231;SDS011;3657;49.630;11.018;2023-02-28T02:13:14;8.53;;;8.13;;
7231;SDS011;3657;49.630;11.018;2023-02-28T02:15:53;8.60;;;8.20;;
7231;SDS011;3657;49.630;11.018;2023-02-28T02:18:30;9.63;;;9.23;;
7231;SDS011;3657;49.630;11.018;2023-02-28T02:21:27;8.73;;;8.33;;
7231;SDS011;3657;49.630;11.018;2023-02-28T02:27:17;9.47;;;9.07;;
7231;SDS011;3657;49.630;11.018;2023-02-28T02:30:12;9.43;;;9.13;;
7231;SDS011;3657;49.630;11.018;2023-02-28T02:33:23;8.80;;;8.50;;
7231;SDS011;3657;49.630;11.018;2023-02-28T02:36:11;7.97;;;7.67;;
7231;SDS011;3657;49.630;11.018;2023-02-28T02:38:44;9.40;;;8.90;;
7231;SDS011;3657;49.630;11.018;2023-02-28T02:41:16;9.60;;;9.20;;
7231;SDS011;3657;49.630;11.018;2023-02-28T02:43:49;8.37;;;7.97;;
7231;SDS011;3657;49.630;11.018;2023-02-28T02:46:19;8.90;;;8.50;;
7231;SDS011;3657;49.630;11.018;2023-02-28T02:48:47;8.90;;;8.50;;
7231;SDS011;3657;49.630;11.018;2023-02-28T02:51:17;8.93;;;8.53;;
7231;SDS011;3657;49.630;11.018;2023-02-28T02:53:47;8.23;;;7.93;;
7231;SDS011;3657;49.630;11.018;2023-02-28T02:56:17;9.23;;;8.83;;
7231;SDS011;3657;49.630;11.018;2023-02-28T02:58:45;9.13;;;8.53;;
7231;SDS011;3657;49.630;11.018;2023-02-28T03:01:15;9.60;;;9.10;;
7231;SDS011;3657;49.630;11.018;2023-02-28T03:03:53;8.37;;;7.97;;
7231;SDS011;3657;49.630;11.018;2023-02-28T03:06:23;8.93;;;8.43;;
7231;SDS011;3657;49.630;11.018;2023-02-28T03:08:50;8.67;;;8.23;;
7231;SDS011;3657;49.630;11.018;2023-02-28T03:11:16;8.67;;;8.27;;
7231;SDS011;3657;49.630;11.018;2023-02-28T03:13:49;10.27;;;9.57;;
7231;SDS011;3657;49.630;11.018;2023-02-28T03:16:31;8.80;;;8.40;;
7231;SDS011;3657;49.630;11.018;2023-02-28T03:19:08;9.47;;;9.10;;
7231;SDS011;3657;49.630;11.018;2023-02-28T03:21:50;8.47;;;8.17;;
7231;SDS011;3657;49.630;11.018;2023-02-28T03:24:26;10.63;;;10.03;;
7231;SDS011;3657;49.630;11.018;2023-02-28T03:27:03;9.80;;;9.30;;
7231;SDS011;3657;49.630;11.018;2023-02-28T03:29:35;8.40;;;8.03;;
7231;SDS011;3657;49.630;11.018;2023-02-28T03:32:06;8.63;;;8.23;;
7231;SDS011;3657;49.630;11.018;2023-02-28T03:34:42;10.87;;;10.37;;
7231;SDS011;3657;49.630;11.018;2023-02-28T03:37:18;10.57;;;10.00;;
7231;SDS011;3657;49.630;11.018;2023-02-28T03:39:49;8.43;;;8.10;;
7231;SDS011;3657;49.630;11.018;2023-02-28T03:42:21;9.00;;;8.60;;
7231;SDS011;3657;49.630;11.018;2023-02-28T03:44:52;8.97;;;8.63;;
7231;SDS011;3657;49.630;11.018;2023-02-28T03:47:23;10.80;;;10.33;;
7231;SDS011;3657;49.630;11.018;2023-02-28T03:49:53;10.20;;;9.70;;
7231;SDS011;3657;49.630;11.018;2023-02-28T03:52:27;10.73;;;10.13;;
7231;SDS011;3657;49.630;11.018;2023-02-28T03:54:59;9.70;;;9.30;;
7231;SDS011;3657;49.630;11.018;2023-02-28T03:57:32;11.03;;;10.40;;
7231;SDS011;3657;49.630;11.018;2023-02-28T04:00:04;10.87;;;10.27;;
7231;SDS011;3657;49.630;11.018;2023-02-28T04:02:34;11.73;;;11.10;;
7231;SDS011;3657;49.630;11.018;2023-02-28T04:05:01;11.10;;;10.50;;
7231;SDS011;3657;49.630;11.018;2023-02-28T04:07:30;11.30;;;10.60;;
7231;SDS011;3657;49.630;11.018;2023-02-28T04:09:57;10.43;;;9.97;;
7231;SDS011;3657;49.630;11.018;2023-02-28T04:12:24;10.10;;;9.67;;
7231;SDS011;3657;49.630;11.018;2023-02-28T04:14:51;10.07;;;9.57;;
7231;SDS011;3657;49.630;11.018;2023-02-28T04:17:18;10.97;;;10.47;;
7231;SDS011;3657;49.630;11.018;2023-02-28T04:19:44;10.40;;;9.90;;
7231;SDS011;3657;49.630;11.018;2023-02-28T04:22:11;9.87;;;9.37;;
7231;SDS011;3657;49.630;11.018;2023-02-28T04:24:39;10.87;;;10.23;;
7231;SDS011;3657;49.630;11.018;2023-02-28T04:27:08;10.90;;;10.30;;
7231;SDS011;3657;49.630;11.018;2023-02-28T04:29:35;11.37;;;10.77;;
7231;SDS011;3657;49.630;11.018;2023-02-28T04:32:02;11.23;;;10.67;;
7231;SDS011;3657;49.630;11.018;2023-02-28T04:34:30;11.83;;;11.07;;
7231;SDS011;3657;49.630;11.018;2023-02-28T04:36:57;11.03;;;10.47;;
7231;SDS011;3657;49.630;11.018;2023-02-28T04:39:25;11.27;;;10.77;;
7231;SDS011;3657;49.630;11.018;2023-02-28T04:41:53;12.00;;;11.40;;
7231;SDS011;3657;49.630;11.018;2023-02-28T04:44:20;11.67;;;11.07;;
7231;SDS011;3657;49.630;11.018;2023-02-28T04:46:47;12.30;;;11.70;;
7231;SDS011;3657;49.630;11.018;2023-02-28T04:49:15;12.97;;;12.27;;
7231;SDS011;3657;49.630;11.018;2023-02-28T04:51:41;11.27;;;10.57;;
7231;SDS011;3657;49.630;11.018;2023-02-28T04:54:08;11.13;;;10.53;;
7231;SDS011;3657;49.630;11.018;2023-02-28T04:56:35;11.93;;;11.27;;
7231;SDS011;3657;49.630;11.018;2023-02-28T04:59:03;10.60;;;10.10;;
7231;SDS011;3657;49.630;11.018;2023-02-28T05:01:31;11.07;;;10.50;;
7231;SDS011;3657;49.630;11.018;2023-02-28T05:04:00;12.10;;;11.40;;
7231;SDS011;3657;49.630;11.018;2023-02-28T05:06:29;12.60;;;11.90;;
7231;SDS011;3657;49.630;11.018;2023-02-28T05:08:58;12.67;;;11.97;;
7231;SDS011;3657;49.630;11.018;2023-02-28T05:11:25;11.57;;;10.97;;
7231;SDS011;3657;49.630;11.018;2023-02-28T05:13:54;11.17;;;10.67;;
7231;SDS011;3657;49.630;11.018;2023-02-28T05:16:22;12.30;;;11.63;;
7231;SDS011;3657;49.630;11.018;2023-02-28T05:18:49;12.73;;;11.97;;
7231;SDS011;3657;49.630;11.018;2023-02-28T05:21:26;13.80;;;12.90;;
7231;SDS011;3657;49.630;11.018;2023-02-28T05:23:55;10.93;;;10.33;;
7231;SDS011;3657;49.630;11.018;2023-02-28T05:26:22;13.40;;;12.47;;
7231;SDS011;3657;49.630;11.018;2023-02-28T05:28:49;11.20;;;10.60;;
7231;SDS011;3657;49.630;11.018;2023-02-28T05:31:16;14.00;;;13.00;;
7231;SDS011;3657;49.630;11.018;2023-02-28T05:33:44;11.23;;;10.63;;
7231;SDS011;3657;49.630;11.018;2023-02-28T05:36:11;12.23;;;11.53;;
7231;SDS011;3657;49.630;11.018;2023-02-28T05:38:37;14.37;;;13.33;;
7231;SDS011;3657;49.630;11.018;2023-02-28T05:41:05;12.83;;;12.13;;
7231;SDS011;3657;49.630;11.018;2023-02-28T05:43:32;11.87;;;11.27;;
7231;SDS011;3657;49.630;11.018;2023-02-28T05:46:01;10.67;;;10.10;;
7231;SDS011;3657;49.630;11.018;2023-02-28T05:48:29;12.67;;;11.93;;
7231;SDS011;3657;49.630;11.018;2023-02-28T05:50:58;12.20;;;11.57;;
7231;SDS011;3657;49.630;11.018;2023-02-28T05:53:24;12.40;;;11.80;;
7231;SDS011;3657;49.630;11.018;2023-02-28T05:55:52;11.13;;;10.63;;
7231;SDS011;3657;49.630;11.018;2023-02-28T05:58:18;12.83;;;12.03;;
7231;SDS011;3657;49.630;11.018;2023-02-28T06:00:45;11.80;;;10.90;;
7231;SDS011;3657;49.630;11.018;2023-02-28T06:03:12;12.03;;;11.47;;
7231;SDS011;3657;49.630;11.018;2023-02-28T06:05:38;12.93;;;12.33;;
7231;SDS011;3657;49.630;11.018;2023-02-28T06:08:06;11.20;;;10.60;;
7231;SDS011;3657;49.630;11.018;2023-02-28T06:10:33;12.80;;;11.97;;
7231;SDS011;3657;49.630;11.018;2023-02-28T06:13:00;12.63;;;12.03;;
7231;SDS011;3657;49.630;11.018;2023-02-28T06:15:28;13.63;;;12.73;;
7231;SDS011;3657;49.630;11.018;2023-02-28T06:17:55;17.07;;;15.70;;
7231;SDS011;3657;49.630;11.018;2023-02-28T06:20:22;15.60;;;14.47;;
7231;SDS011;3657;49.630;11.018;2023-02-28T06:22:51;16.07;;;14.97;;
7231;SDS011;3657;49.630;11.018;2023-02-28T06:25:20;14.63;;;13.60;;
7231;SDS011;3657;49.630;11.018;2023-02-28T06:27:47;15.47;;;14.33;;
7231;SDS011;3657;49.630;11.018;2023-02-28T06:30:14;14.37;;;13.43;;
7231;SDS011;3657;49.630;11.018;2023-02-28T06:32:41;15.23;;;14.33;;
7231;SDS011;3657;49.630;11.018;2023-02-28T06:35:08;14.60;;;13.70;;
7231;SDS011;3657;49.630;11.018;2023-02-28T06:37:34;15.10;;;14.00;;
7231;SDS011;3657;49.630;11.018;2023-02-28T06:40:01;14.50;;;13.53;;
7231;SDS011;3657;49.630;11.018;2023-02-28T06:42:32;15.50;;;14.33;;
7231;SDS011;3657;49.630;11.018;2023-02-28T06:44:58;16.40;;;15.20;;
7231;SDS011;3657;49.630;11.018;2023-02-28T06:47:28;16.77;;;15.63;;
7231;SDS011;3657;49.630;11.018;2023-02-28T06:49:56;16.20;;;15.00;;
7231;SDS011;3657;49.630;11.018;2023-02-28T06:52:23;15.67;;;14.17;;
7231;SDS011;3657;49.630;11.018;2023-02-28T06:54:49;15.40;;;14.30;;
7231;SDS011;3657;49.630;11.018;2023-02-28T06:57:24;16.87;;;15.57;;
7231;SDS011;3657;49.630;11.018;2023-02-28T06:59:52;14.93;;;13.97;;
7231;SDS011;3657;49.630;11.018;2023-02-28T07:02:19;16.87;;;15.67;;
7231;SDS011;3657;49.630;11.018;2023-02-28T07:04:45;18.10;;;16.73;;
7231;SDS011;3657;49.630;11.018;2023-02-28T07:07:12;17.13;;;15.83;;
7231;SDS011;3657;49.630;11.018;2023-02-28T07:09:39;17.07;;;15.80;;
7231;SDS011;3657;49.630;11.018;2023-02-28T07:12:06;16.83;;;15.53;;
7231;SDS011;3657;49.630;11.018;2023-02-28T07:14:32;16.87;;;15.50;;
7231;SDS011;3657;49.630;11.018;2023-02-28T07:17:00;17.03;;;15.73;;
7231;SDS011;3657;49.630;11.018;2023-02-28T07:19:27;18.67;;;17.03;;
7231;SDS011;3657;49.630;11.018;2023-02-28T07:21:54;17.87;;;16.37;;
7231;SDS011;3657;49.630;11.018;2023-02-28T07:24:20;15.93;;;14.83;;
7231;SDS011;3657;49.630;11.018;2023-02-28T07:26:50;17.87;;;16.30;;
7231;SDS011;3657;49.630;11.018;2023-02-28T07:29:17;17.07;;;15.70;;
7231;SDS011;3657;49.630;11.018;2023-02-28T07:31:44;16.73;;;15.53;;
7231;SDS011;3657;49.630;11.018;2023-02-28T07:34:12;16.77;;;15.43;;
7231;SDS011;3657;49.630;11.018;2023-02-28T07:36:39;17.77;;;16.20;;
7231;SDS011;3657;49.630;11.018;2023-02-28T07:39:06;17.53;;;16.20;;
7231;SDS011;3657;49.630;11.018;2023-02-28T07:41:34;17.90;;;16.53;;
7231;SDS011;3657;49.630;11.018;2023-02-28T07:44:04;18.57;;;17.00;;
7231;SDS011;3657;49.630;11.018;2023-02-28T07:46:31;18.33;;;16.43;;
7231;SDS011;3657;49.630;11.018;2023-02-28T07:49:00;18.90;;;17.33;;
7231;SDS011;3657;49.630;11.018;2023-02-28T07:51:29;19.83;;;18.00;;
7231;SDS011;3657;49.630;11.018;2023-02-28T07:53:56;16.97;;;15.67;;
7231;SDS011;3657;49.630;11.018;2023-02-28T07:56:23;19.03;;;17.53;;
7231;SDS011;3657;49.630;11.018;2023-02-28T07:58:50;18.77;;;17.27;;
7231;SDS011;3657;49.630;11.018;2023-02-28T08:01:16;19.07;;;17.23;;
7231;SDS011;3657;49.630;11.018;2023-02-28T08:03:44;20.50;;;18.60;;
7231;SDS011;3657;49.630;11.018;2023-02-28T08:06:14;20.17;;;18.57;;
7231;SDS011;3657;49.630;11.018;2023-02-28T08:08:45;18.90;;;17.17;;
7231;SDS011;3657;49.630;11.018;2023-02-28T08:11:12;19.13;;;17.50;;
7231;SDS011;3657;49.630;11.018;2023-02-28T08:13:38;19.53;;;17.87;;
7231;SDS011;3657;49.630;11.018;2023-02-28T08:16:07;18.37;;;16.87;;
7231;SDS011;3657;49.630;11.018;2023-02-28T08:18:34;20.90;;;19.10;;
7231;SDS011;3657;49.630;11.018;2023-02-28T08:21:05;20.10;;;18.60;;
7231;SDS011;3657;49.630;11.018;2023-02-28T08:23:32;20.07;;;18.27;;
7231;SDS011;3657;49.630;11.018;2023-02-28T08:26:01;20.47;;;18.67;;
7231;SDS011;3657;49.630;11.018;2023-02-28T08:28:28;19.93;;;18.23;;
7231;SDS011;3657;49.630;11.018;2023-02-28T08:30:55;19.93;;;18.33;;
7231;SDS011;3657;49.630;11.018;2023-02-28T08:33:22;17.57;;;16.07;;
7231;SDS011;3657;49.630;11.018;2023-02-28T08:35:51;18.13;;;16.73;;
7231;SDS011;3657;49.630;11.018;2023-02-28T08:38:19;17.23;;;15.93;;
7231;SDS011;3657;49.630;11.018;2023-02-28T08:40:46;19.07;;;17.43;;
7231;SDS011;3657;49.630;11.018;2023-02-28T08:43:14;18.43;;;16.90;;
7231;SDS011;3657;49.630;11.018;2023-02-28T08:45:40;16.93;;;15.73;;
7231;SDS011;3657;49.630;11.018;2023-02-28T08:48:07;17.00;;;15.63;;
7231;SDS011;3657;49.630;11.018;2023-02-28T08:50:34;16.93;;;15.60;;
7231;SDS011;3657;49.630;11.018;2023-02-28T08:53:00;17.37;;;15.90;;
7231;SDS011;3657;49.630;11.018;2023-02-28T08:55:27;17.27;;;15.97;;
7231;SDS011;3657;49.630;11.018;2023-02-28T08:57:54;16.50;;;15.40;;
7231;SDS011;3657;49.630;11.018;2023-02-28T09:00:22;16.40;;;15.23;;
7231;SDS011;3657;49.630;11.018;2023-02-28T09:02:49;17.83;;;16.43;;
7231;SDS011;3657;49.630;11.018;2023-02-28T09:05:16;17.53;;;16.27;;
7231;SDS011;3657;49.630;11.018;2023-02-28T09:07:43;14.93;;;13.83;;
7231;SDS011;3657;49.630;11.018;2023-02-28T09:10:10;16.30;;;15.17;;
7231;SDS011;3657;49.630;11.018;2023-02-28T09:12:37;17.20;;;15.80;;
7231;SDS011;3657;49.630;11.018;2023-02-28T09:15:04;15.40;;;14.30;;
7231;SDS011;3657;49.630;11.018;2023-02-28T09:17:33;17.53;;;15.97;;
7231;SDS011;3657;49.630;11.018;2023-02-28T09:20:00;15.37;;;14.17;;
7231;SDS011;3657;49.630;11.018;2023-02-28T09:22:26;15.70;;;14.27;;
7231;SDS011;3657;49.630;11.018;2023-02-28T09:24:53;17.20;;;15.73;;
7231;SDS011;3657;49.630;11.018;2023-02-28T09:27:20;15.70;;;14.60;;
7231;SDS011;3657;49.630;11.018;2023-02-28T09:29:47;17.23;;;15.80;;
7231;SDS011;3657;49.630;11.018;2023-02-28T09:32:13;15.77;;;14.57;;
7231;SDS011;3657;49.630;11.018;2023-02-28T09:34:41;15.37;;;14.37;;
7231;SDS011;3657;49.630;11.018;2023-02-28T09:37:08;16.80;;;15.60;;
7231;SDS011;3657;49.630;11.018;2023-02-28T09:39:35;14.97;;;13.77;;
7231;SDS011;3657;49.630;11.018;2023-02-28T09:42:02;16.57;;;15.47;;
7231;SDS011;3657;49.630;11.018;2023-02-28T09:44:30;15.97;;;14.73;;
7231;SDS011;3657;49.630;11.018;2023-02-28T09:47:02;15.83;;;14.63;;
7231;SDS011;3657;49.630;11.018;2023-02-28T09:49:37;14.20;;;13.30;;
7231;SDS011;3657;49.630;11.018;2023-02-28T09:52:10;16.00;;;14.90;;
7231;SDS011;3657;49.630;11.018;2023-02-28T09:54:40;15.23;;;14.17;;
7231;SDS011;3657;49.630;11.018;2023-02-28T09:57:07;14.50;;;13.67;;
7231;SDS011;3657;49.630;11.018;2023-02-28T09:59:44;15.83;;;14.73;;
7231;SDS011;3657;49.630;11.018;2023-02-28T10:02:21;15.57;;;14.47;;
7231;SDS011;3657;49.630;11.018;2023-02-28T10:05:07;14.60;;;13.60;;
7231;SDS011;3657;49.630;11.018;2023-02-28T10:07:44;13.73;;;12.93;;
7231;SDS011;3657;49.630;11.018;2023-02-28T10:10:21;14.33;;;13.43;;
7231;SDS011;3657;49.630;11.018;2023-02-28T10:12:52;15.23;;;14.17;;
7231;SDS011;3657;49.630;11.018;2023-02-28T10:15:21;14.93;;;13.90;;
7231;SDS011;3657;49.630;11.018;2023-02-28T10:17:53;12.80;;;11.97;;
7231;SDS011;3657;49.630;11.018;2023-02-28T10:20:23;14.63;;;13.63;;
7231;SDS011;3657;49.630;11.018;2023-02-28T10:22:58;15.23;;;14.00;;
7231;SDS011;3657;49.630;11.018;2023-02-28T10:25:32;13.93;;;13.03;;
7231;SDS011;3657;49.630;11.018;2023-02-28T10:28:00;15.20;;;14.23;;
7231;SDS011;3657;49.630;11.018;2023-02-28T10:30:36;14.83;;;13.63;;
7231;SDS011;3657;49.630;11.018;2023-02-28T10:33:04;14.20;;;13.20;;
7231;SDS011;3657;49.630;11.018;2023-02-28T10:35:31;15.17;;;14.17;;
7231;SDS011;3657;49.630;11.018;2023-02-28T10:38:00;13.77;;;12.87;;
7231;SDS011;3657;49.630;11.018;2023-02-28T10:40:36;15.03;;;13.90;;
7231;SDS011;3657;49.630;11.018;2023-02-28T10:43:03;14.20;;;13.40;;
7231;SDS011;3657;49.630;11.018;2023-02-28T10:45:31;13.33;;;12.63;;
7231;SDS011;3657;49.630;11.018;2023-02-28T10:48:01;14.57;;;13.37;;
7231;SDS011;3657;49.630;11.018;2023-02-28T10:50:34;14.80;;;13.90;;
7231;SDS011;3657;49.630;11.018;2023-02-28T10:53:16;14.20;;;13.30;;
7231;SDS011;3657;49.630;11.018;2023-02-28T10:55:56;12.40;;;11.70;;
7231;SDS011;3657;49.630;11.018;2023-02-28T10:58:24;13.63;;;12.80;;
7231;SDS011;3657;49.630;11.018;2023-02-28T11:00:51;13.47;;;12.67;;
7231;SDS011;3657;49.630;11.018;2023-02-28T11:03:32;13.20;;;12.30;;
7231;SDS011;3657;49.630;11.018;2023-02-28T11:06:04;13.57;;;12.83;;
7231;SDS011;3657;49.630;11.018;2023-02-28T11:08:34;13.87;;;12.90;;
7231;SDS011;3657;49.630;11.018;2023-02-28T11:11:09;12.03;;;11.23;;
7231;SDS011;3657;49.630;11.018;2023-02-28T11:13:36;13.90;;;12.90;;
7231;SDS011;3657;49.630;11.018;2023-02-28T11:16:04;13.63;;;12.73;;
7231;SDS011;3657;49.630;11.018;2023-02-28T11:18:35;13.27;;;12.50;;
7231;SDS011;3657;49.630;11.018;2023-02-28T11:21:06;13.90;;;13.10;;
7231;SDS011;3657;49.630;11.018;2023-02-28T11:23:37;13.33;;;12.63;;
7231;SDS011;3657;49.630;11.018;2023-02-28T11:26:07;13.37;;;12.27;;
7231;SDS011;3657;49.630;11.018;2023-02-28T11:28:36;14.00;;;13.07;;
7231;SDS011;3657;49.630;11.018;2023-02-28T11:31:05;13.67;;;12.93;;
7231;SDS011;3657;49.630;11.018;2023-02-28T11:33:41;13.43;;;12.53;;
7231;SDS011;3657;49.630;11.018;2023-02-28T11:36:11;14.00;;;13.10;;
7231;SDS011;3657;49.630;11.018;2023-02-28T11:38:42;13.57;;;12.77;;
7231;SDS011;3657;49.630;11.018;2023-02-28T11:41:13;14.27;;;13.37;;
7231;SDS011;3657;49.630;11.018;2023-02-28T11:44:00;14.90;;;13.87;;
7231;SDS011;3657;49.630;11.018;2023-02-28T11:46:44;13.60;;;12.57;;
7231;SDS011;3657;49.630;11.018;2023-02-28T11:49:21;13.73;;;12.63;;
7231;SDS011;3657;49.630;11.018;2023-02-28T11:51:56;13.70;;;12.90;;
7231;SDS011;3657;49.630;11.018;2023-02-28T11:54:41;11.70;;;11.03;;
7231;SDS011;3657;49.630;11.018;2023-02-28T11:57:26;13.23;;;12.50;;
7231;SDS011;3657;49.630;11.018;2023-02-28T12:00:03;13.33;;;12.43;;
7231;SDS011;3657;49.630;11.018;2023-02-28T12:02:44;14.23;;;13.30;;
7231;SDS011;3657;49.630;11.018;2023-02-28T12:05:24;14.53;;;13.40;;
7231;SDS011;3657;49.630;11.018;2023-02-28T12:07:57;14.10;;;13.27;;
7231;SDS011;3657;49.630;11.018;2023-02-28T12:10:33;14.57;;;13.67;;
7231;SDS011;3657;49.630;11.018;2023-02-28T12:13:12;14.03;;;13.03;;
7231;SDS011;3657;49.630;11.018;2023-02-28T12:18:52;13.87;;;12.87;;
7231;SDS011;3657;49.630;11.018;2023-02-28T12:21:31;14.57;;;13.57;;
7231;SDS011;3657;49.630;11.018;2023-02-28T12:24:23;14.27;;;13.33;;
7231;SDS011;3657;49.630;11.018;2023-02-28T12:27:00;13.67;;;12.57;;
7231;SDS011;3657;49.630;11.018;2023-02-28T12:29:32;13.60;;;12.70;;
7231;SDS011;3657;49.630;11.018;2023-02-28T12:32:09;13.97;;;13.03;;
7231;SDS011;3657;49.630;11.018;2023-02-28T12:34:42;13.87;;;12.77;;
7231;SDS011;3657;49.630;11.018;2023-02-28T12:37:14;13.13;;;12.43;;
7231;SDS011;3657;49.630;11.018;2023-02-28T12:39:46;13.00;;;12.33;;
7231;SDS011;3657;49.630;11.018;2023-02-28T12:42:22;13.10;;;12.33;;
7231;SDS011;3657;49.630;11.018;2023-02-28T12:44:54;13.37;;;12.57;;
7231;SDS011;3657;49.630;11.018;2023-02-28T12:47:25;13.60;;;12.80;;
7231;SDS011;3657;49.630;11.018;2023-02-28T12:49:52;14.43;;;13.33;;
7231;SDS011;3657;49.630;11.018;2023-02-28T12:52:23;13.97;;;13.07;;
7231;SDS011;3657;49.630;11.018;2023-02-28T12:54:59;15.23;;;14.07;;
7231;SDS011;3657;49.630;11.018;2023-02-28T12:57:34;14.63;;;13.53;;
7231;SDS011;3657;49.630;11.018;2023-02-28T13:00:08;15.00;;;13.90;;
7231;SDS011;3657;49.630;11.018;2023-02-28T13:02:57;14.53;;;13.37;;
7231;SDS011;3657;49.630;11.018;2023-02-28T13:08:37;13.63;;;12.83;;
7231;SDS011;3657;49.630;11.018;2023-02-28T13:11:29;14.87;;;13.90;;
7231;SDS011;3657;49.630;11.018;2023-02-28T13:14:01;16.27;;;15.07;;
7231;SDS011;3657;49.630;11.018;2023-02-28T13:19:20;14.53;;;13.53;;
7231;SDS011;3657;49.630;11.018;2023-02-28T13:21:49;15.03;;;13.83;;
7231;SDS011;3657;49.630;11.018;2023-02-28T13:24:37;14.40;;;13.33;;
7231;SDS011;3657;49.630;11.018;2023-02-28T13:27:22;14.90;;;13.80;;
7231;SDS011;3657;49.630;11.018;2023-02-28T13:29:59;14.20;;;13.07;;
7231;SDS011;3657;49.630;11.018;2023-02-28T13:38:09;15.73;;;14.63;;
7231;SDS011;3657;49.630;11.018;2023-02-28T13:41:09;15.83;;;14.63;;
7231;SDS011;3657;49.630;11.018;2023-02-28T13:44:08;14.10;;;13.17;;
7231;SDS011;3657;49.630;11.018;2023-02-28T13:46:38;15.57;;;14.40;;
7231;SDS011;3657;49.630;11.018;2023-02-28T13:52:43;14.43;;;13.43;;
7231;SDS011;3657;49.630;11.018;2023-02-28T13:55:19;13.50;;;12.60;;
7231;SDS011;3657;49.630;11.018;2023-02-28T13:57:56;14.27;;;13.10;;
7231;SDS011;3657;49.630;11.018;2023-02-28T14:00:40;13.70;;;12.90;;
7231;SDS011;3657;49.630;11.018;2023-02-28T14:03:24;13.23;;;12.33;;
7231;SDS011;3657;49.630;11.018;2023-02-28T14:06:08;13.87;;;12.90;;
7231;SDS011;3657;49.630;11.018;2023-02-28T14:08:51;14.70;;;13.67;;
7231;SDS011;3657;49.630;11.018;2023-02-28T14:11:25;15.63;;;14.50;;
7231;SDS011;3657;49.630;11.018;2023-02-28T14:13:56;15.70;;;14.30;;
7231;SDS011;3657;49.630;11.018;2023-02-28T14:16:23;15.27;;;14.27;;
7231;SDS011;3657;49.630;11.018;2023-02-28T14:18:55;14.63;;;13.73;;
7231;SDS011;3657;49.630;11.018;2023-02-28T14:21:25;14.57;;;13.63;;
7231;SDS011;3657;49.630;11.018;2023-02-28T14:26:53;14.87;;;13.77;;
7231;SDS011;3657;49.630;11.018;2023-02-28T14:29:51;15.57;;;14.47;;
7231;SDS011;3657;49.630;11.018;2023-02-28T14:32:41;15.43;;;14.30;;
7231;SDS011;3657;49.630;11.018;2023-02-28T14:35:19;15.90;;;14.80;;
7231;SDS011;3657;49.630;11.018;2023-02-28T14:37:53;15.70;;;14.60;;
7231;SDS011;3657;49.630;11.018;2023-02-28T14:40:22;45.50;;;16.13;;
7231;SDS011;3657;49.630;11.018;2023-02-28T14:42:55;16.77;;;15.07;;
7231;SDS011;3657;49.630;11.018;2023-02-28T14:45:24;15.33;;;14.07;;
7231;SDS011;3657;49.630;11.018;2023-02-28T14:47:55;17.33;;;13.70;;
7231;SDS011;3657;49.630;11.018;2023-02-28T14:50:27;15.60;;;13.70;;
7231;SDS011;3657;49.630;11.018;2023-02-28T14:52:56;15.00;;;13.73;;
7231;SDS011;3657;49.630;11.018;2023-02-28T14:55:25;21.03;;;17.77;;
7231;SDS011;3657;49.630;11.018;2023-02-28T14:57:55;14.97;;;13.77;;
7231;SDS011;3657;49.630;11.018;2023-02-28T15:00:24;15.83;;;14.63;;
7231;SDS011;3657;49.630;11.018;2023-02-28T15:02:52;16.57;;;15.23;;
7231;SDS011;3657;49.630;11.018;2023-02-28T15:05:23;14.57;;;13.30;;
7231;SDS011;3657;49.630;11.018;2023-02-28T15:08:04;14.60;;;13.70;;
7231;SDS011;3657;49.630;11.018;2023-02-28T15:10:35;15.47;;;14.37;;
7231;SDS011;3657;49.630;11.018;2023-02-28T15:13:04;16.90;;;15.50;;
7231;SDS011;3657;49.630;11.018;2023-02-28T15:15:35;15.77;;;14.70;;
7231;SDS011;3657;49.630;11.018;2023-02-28T15:18:07;16.17;;;15.07;;
7231;SDS011;3657;49.630;11.018;2023-02-28T15:20:42;16.30;;;15.10;;
7231;SDS011;3657;49.630;11.018;2023-02-28T15:23:10;15.53;;;14.40;;
7231;SDS011;3657;49.630;11.018;2023-02-28T15:25:37;15.73;;;14.63;;